sensor_id;sensor_type;location;lat;lon;timestamp;pressure;altitude;pressure_sealevel;temperature;humidity
44079;BME280;29744;49.078;12.878;2022-10-31T00:04:42;96920.38;;;16.35;44.99
44079;BME280;29744;49.078;12.878;2022-10-31T00:09:42;96908.75;;;16.35;44.46
44079;BME280;29744;49.078;12.878;2022-10-31T00:14:43;96910.66;;;16.34;44.37
44079;BME280;29744;49.078;12.878;2022-10-31T00:19:43;96907.94;;;16.34;44.80
44079;BME280;29744;49.078;12.878;2022-10-31T00:24:43;96912.56;;;16.34;44.97
44079;BME280;29744;49.078;12.878;2022-10-31T00:29:44;96912.56;;;16.34;44.62
44079;BME280;29744;49.078;12.878;2022-10-31T00:34:44;96914.47;;;16.33;44.35
44079;BME280;29744;49.078;12.878;2022-10-31T00:39:44;96912.56;;;16.34;44.70
44079;BME280;29744;49.078;12.878;2022-10-31T00:44:45;96913.69;;;16.33;44.59
44079;BME280;29744;49.078;12.878;2022-10-31T00:49:45;96913.69;;;16.33;44.93
44079;BME280;29744;49.078;12.878;2022-10-31T00:54:45;96913.69;;;16.33;44.85
44079;BME280;29744;49.078;12.878;2022-10-31T00:59:46;96910.19;;;16.32;45.10
44079;BME280;29744;49.078;12.878;2022-10-31T01:04:46;96907.47;;;16.32;44.57
44079;BME280;29744;49.078;12.878;2022-10-31T01:09:46;96908.28;;;16.33;44.62
44079;BME280;29744;49.078;12.878;2022-10-31T01:14:47;96912.91;;;16.32;44.56
44079;BME280;29744;49.078;12.878;2022-10-31T01:19:47;96909.41;;;16.32;44.71
44079;BME280;29744;49.078;12.878;2022-10-31T01:24:47;96912.09;;;16.32;44.92
44079;BME280;29744;49.078;12.878;2022-10-31T01:29:47;96908.59;;;16.31;44.84
44079;BME280;29744;49.078;12.878;2022-10-31T01:34:48;96905.09;;;16.31;44.60
44079;BME280;29744;49.078;12.878;2022-10-31T01:39:48;96900.81;;;16.30;44.79
44079;BME280;29744;49.078;12.878;2022-10-31T01:45:00;96895.38;;;16.30;44.79
44079;BME280;29744;49.078;12.878;2022-10-31T01:50:06;96900.81;;;16.30;44.73
44079;BME280;29744;49.078;12.878;2022-10-31T01:55:29;96891.09;;;16.29;44.82
44079;BME280;29744;49.078;12.878;2022-10-31T02:00:32;96894.91;;;16.28;44.75
44079;BME280;29744;49.078;12.878;2022-10-31T02:05:33;96894.91;;;16.28;44.87
44079;BME280;29744;49.078;12.878;2022-10-31T02:10:36;96890.31;;;16.28;44.67
44079;BME280;29744;49.078;12.878;2022-10-31T02:15:37;96893.34;;;16.27;44.79
44079;BME280;29744;49.078;12.878;2022-10-31T02:26:21;96889.34;;;16.24;44.69
44079;BME280;29744;49.078;12.878;2022-10-31T02:31:39;96893.97;;;16.24;45.04
44079;BME280;29744;49.078;12.878;2022-10-31T02:36:52;96889.69;;;16.23;44.54
44079;BME280;29744;49.078;12.878;2022-10-31T02:42:16;96891.28;;;16.24;44.63
44079;BME280;29744;49.078;12.878;2022-10-31T02:47:21;96893.19;;;16.23;44.62
44079;BME280;29744;49.078;12.878;2022-10-31T02:52:26;96885.38;;;16.22;44.52
44079;BME280;29744;49.078;12.878;2022-10-31T02:57:34;96888.41;;;16.20;44.70
44079;BME280;29744;49.078;12.878;2022-10-31T03:08:00;96886.50;;;16.21;44.85
44079;BME280;29744;49.078;12.878;2022-10-31T03:13:14;96893.03;;;16.20;44.66
44079;BME280;29744;49.078;12.878;2022-10-31T03:18:44;96893.34;;;16.18;44.80
44079;BME280;29744;49.078;12.878;2022-10-31T03:23:50;96893.34;;;16.18;44.78
44079;BME280;29744;49.078;12.878;2022-10-31T03:28:55;96892.56;;;16.18;44.55
44079;BME280;29744;49.078;12.878;2022-10-31T03:33:59;96899.09;;;16.17;44.98
44079;BME280;29744;49.078;12.878;2022-10-31T03:39:03;96901.78;;;16.17;44.98
44079;BME280;29744;49.078;12.878;2022-10-31T03:44:09;96899.88;;;16.17;44.99
44079;BME280;29744;49.078;12.878;2022-10-31T03:49:11;96910.72;;;16.17;44.63
44079;BME280;29744;49.078;12.878;2022-10-31T03:59:46;96925.03;;;16.18;44.88
44079;BME280;29744;49.078;12.878;2022-10-31T04:04:48;96927.75;;;16.18;44.34
44079;BME280;29744;49.078;12.878;2022-10-31T04:09:50;96925.81;;;16.18;44.47
44079;BME280;29744;49.078;12.878;2022-10-31T04:14:52;96925.81;;;16.18;44.53
44079;BME280;29744;49.078;12.878;2022-10-31T04:19:52;96925.81;;;16.18;44.80
44079;BME280;29744;49.078;12.878;2022-10-31T04:24:53;96927.75;;;16.18;44.98
44079;BME280;29744;49.078;12.878;2022-10-31T04:29:53;96923.44;;;16.17;44.52
44079;BME280;29744;49.078;12.878;2022-10-31T04:34:53;96924.56;;;16.16;44.96
44079;BME280;29744;49.078;12.878;2022-10-31T04:39:54;96927.59;;;16.14;44.64
44079;BME280;29744;49.078;12.878;2022-10-31T04:44:54;96932.53;;;16.12;44.94
44079;BME280;29744;49.078;12.878;2022-10-31T04:49:54;96932.84;;;16.10;44.82
44079;BME280;29744;49.078;12.878;2022-10-31T04:54:54;96927.75;;;16.09;44.72
44079;BME280;29744;49.078;12.878;2022-10-31T04:59:55;96927.75;;;16.09;45.12
44079;BME280;29744;49.078;12.878;2022-10-31T05:04:55;96928.88;;;16.08;44.72
44079;BME280;29744;49.078;12.878;2022-10-31T05:09:55;96928.88;;;16.08;44.79
44079;BME280;29744;49.078;12.878;2022-10-31T05:14:55;96938.09;;;16.07;44.68
44079;BME280;29744;49.078;12.878;2022-10-31T05:19:56;96926.50;;;16.06;45.14
44079;BME280;29744;49.078;12.878;2022-10-31T05:24:56;96939.22;;;16.06;44.94
44079;BME280;29744;49.078;12.878;2022-10-31T05:29:56;96937.94;;;16.03;44.74
44079;BME280;29744;49.078;12.878;2022-10-31T05:34:57;96937.94;;;16.03;44.69
44079;BME280;29744;49.078;12.878;2022-10-31T05:39:57;96934.78;;;16.01;45.24
44079;BME280;29744;49.078;12.878;2022-10-31T05:44:57;96930.47;;;16.00;45.03
44079;BME280;29744;49.078;12.878;2022-10-31T05:49:58;96938.44;;;15.97;45.06
44079;BME280;29744;49.078;12.878;2022-10-31T05:54:58;96931.91;;;15.98;45.06
44079;BME280;29744;49.078;12.878;2022-10-31T05:59:58;96931.91;;;15.98;45.05
44079;BME280;29744;49.078;12.878;2022-10-31T06:04:59;96939.25;;;15.97;44.87
44079;BME280;29744;49.078;12.878;2022-10-31T06:09:59;96933.03;;;15.97;45.01
44079;BME280;29744;49.078;12.878;2022-10-31T06:15:00;96941.16;;;15.97;45.04
44079;BME280;29744;49.078;12.878;2022-10-31T06:20:00;96941.16;;;15.97;45.16
44079;BME280;29744;49.078;12.878;2022-10-31T06:25:00;96949.59;;;15.95;44.83
44079;BME280;29744;49.078;12.878;2022-10-31T06:30:01;96947.66;;;15.96;44.92
44079;BME280;29744;49.078;12.878;2022-10-31T06:35:01;96946.88;;;15.95;44.79
44079;BME280;29744;49.078;12.878;2022-10-31T06:40:01;96943.38;;;15.95;44.78
44079;BME280;29744;49.078;12.878;2022-10-31T06:45:02;96943.69;;;15.93;44.94
44079;BME280;29744;49.078;12.878;2022-10-31T06:50:02;96949.09;;;15.93;45.08
44079;BME280;29744;49.078;12.878;2022-10-31T06:55:03;96949.09;;;15.93;45.12
44079;BME280;29744;49.078;12.878;2022-10-31T07:00:04;96944.50;;;15.94;45.16
44079;BME280;29744;49.078;12.878;2022-10-31T07:05:05;96957.69;;;15.95;45.08
44079;BME280;29744;49.078;12.878;2022-10-31T07:10:05;96954.03;;;16.00;45.33
44079;BME280;29744;49.078;12.878;2022-10-31T07:15:06;96965.66;;;16.00;44.97
44079;BME280;29744;49.078;12.878;2022-10-31T07:20:07;96973.91;;;16.04;44.96
44079;BME280;29744;49.078;12.878;2022-10-31T07:25:08;96967.06;;;16.06;44.87
44079;BME280;29744;49.078;12.878;2022-10-31T07:30:10;96963.25;;;16.07;45.11
44079;BME280;29744;49.078;12.878;2022-10-31T07:35:12;96955.13;;;16.07;44.85
44079;BME280;29744;49.078;12.878;2022-10-31T07:40:13;96954.03;;;16.08;44.76
44079;BME280;29744;49.078;12.878;2022-10-31T07:45:23;96949.41;;;16.09;44.78
44079;BME280;29744;49.078;12.878;2022-10-31T07:50:28;96956.09;;;16.12;44.63
44079;BME280;29744;49.078;12.878;2022-10-31T07:55:29;96956.09;;;16.12;44.61
44079;BME280;29744;49.078;12.878;2022-10-31T08:00:31;96952.25;;;16.13;44.43
44079;BME280;29744;49.078;12.878;2022-10-31T08:05:33;96958.47;;;16.13;44.42
44079;BME280;29744;49.078;12.878;2022-10-31T08:10:34;96950.03;;;16.15;44.74
44079;BME280;29744;49.078;12.878;2022-10-31T08:15:35;96950.03;;;16.15;44.96
44079;BME280;29744;49.078;12.878;2022-10-31T08:20:38;96946.22;;;16.16;44.61
44079;BME280;29744;49.078;12.878;2022-10-31T08:25:39;96942.72;;;16.15;44.50
44079;BME280;29744;49.078;12.878;2022-10-31T08:30:40;96927.25;;;16.16;44.73
44079;BME280;29744;49.078;12.878;2022-10-31T08:35:41;96925.34;;;16.16;44.91
44079;BME280;29744;49.078;12.878;2022-10-31T08:40:42;96917.25;;;16.16;44.85
44079;BME280;29744;49.078;12.878;2022-10-31T08:45:43;96912.94;;;16.15;44.32
44079;BME280;29744;49.078;12.878;2022-10-31T08:50:44;96919.16;;;16.16;44.54
44079;BME280;29744;49.078;12.878;2022-10-31T08:55:46;96911.81;;;16.16;44.31
44079;BME280;29744;49.078;12.878;2022-10-31T09:00:48;96906.41;;;16.16;44.75
44079;BME280;29744;49.078;12.878;2022-10-31T09:05:49;96905.63;;;16.16;45.06
44079;BME280;29744;49.078;12.878;2022-10-31T09:10:49;96905.63;;;16.16;44.30
44079;BME280;29744;49.078;12.878;2022-10-31T09:15:50;96897.50;;;16.16;44.55
44079;BME280;29744;49.078;12.878;2022-10-31T09:20:51;96889.38;;;16.16;44.60
44079;BME280;29744;49.078;12.878;2022-10-31T09:25:52;96885.88;;;16.15;44.83
44079;BME280;29744;49.078;12.878;2022-10-31T09:30:53;96874.28;;;16.15;44.63
44079;BME280;29744;49.078;12.878;2022-10-31T09:35:53;96865.34;;;16.14;44.67
44079;BME280;29744;49.078;12.878;2022-10-31T09:51:43;96855.66;;;16.13;44.61
44079;BME280;29744;49.078;12.878;2022-10-31T09:56:44;96845.63;;;16.14;44.91
44079;BME280;29744;49.078;12.878;2022-10-31T10:01:52;96843.72;;;16.14;44.44
44079;BME280;29744;49.078;12.878;2022-10-31T10:06:54;96841.78;;;16.15;44.69
44079;BME280;29744;49.078;12.878;2022-10-31T10:17:34;96833.69;;;16.15;44.49
44079;BME280;29744;49.078;12.878;2022-10-31T10:28:01;96825.56;;;16.15;44.35
44079;BME280;29744;49.078;12.878;2022-10-31T10:33:10;96824.44;;;16.16;44.28
44079;BME280;29744;49.078;12.878;2022-10-31T10:38:29;96812.50;;;16.17;44.94
44079;BME280;29744;49.078;12.878;2022-10-31T10:43:34;96802.81;;;16.16;44.34
44079;BME280;29744;49.078;12.878;2022-10-31T10:48:50;96795.34;;;16.13;44.62
44079;BME280;29744;49.078;12.878;2022-10-31T10:59:04;96792.78;;;16.16;44.54
44079;BME280;29744;49.078;12.878;2022-10-31T11:04:14;96778.44;;;16.16;44.87
44079;BME280;29744;49.078;12.878;2022-10-31T11:09:21;96775.75;;;16.16;44.89
44079;BME280;29744;49.078;12.878;2022-10-31T11:14:22;96762.22;;;16.16;44.36
44079;BME280;29744;49.078;12.878;2022-10-31T11:19:26;96756.81;;;16.16;44.90
44079;BME280;29744;49.078;12.878;2022-10-31T11:24:39;96754.88;;;16.16;44.76
44079;BME280;29744;49.078;12.878;2022-10-31T11:29:40;96742.16;;;16.17;44.53
44079;BME280;29744;49.078;12.878;2022-10-31T11:34:45;96739.44;;;16.17;44.88
44079;BME280;29744;49.078;12.878;2022-10-31T11:39:50;96733.25;;;16.16;44.35
44079;BME280;29744;49.078;12.878;2022-10-31T11:44:53;96730.59;;;16.07;44.79
44079;BME280;29744;49.078;12.878;2022-10-31T11:49:56;96720.38;;;16.13;44.53
44079;BME280;29744;49.078;12.878;2022-10-31T11:55:00;96711.91;;;16.15;44.87
44079;BME280;29744;49.078;12.878;2022-10-31T12:00:05;96711.59;;;16.16;44.68
44079;BME280;29744;49.078;12.878;2022-10-31T12:05:24;96708.88;;;16.16;44.65
44079;BME280;29744;49.078;12.878;2022-10-31T12:10:51;96703.81;;;16.15;44.66
44079;BME280;29744;49.078;12.878;2022-10-31T12:16:06;96697.28;;;16.16;44.62
44079;BME280;29744;49.078;12.878;2022-10-31T12:31:53;96682.16;;;16.15;44.88
44079;BME280;29744;49.078;12.878;2022-10-31T12:42:40;96678.66;;;16.14;44.90
44079;BME280;29744;49.078;12.878;2022-10-31T12:53:35;96663.56;;;16.13;44.63
44079;BME280;29744;49.078;12.878;2022-10-31T12:58:43;96660.84;;;16.13;44.68
44079;BME280;29744;49.078;12.878;2022-10-31T13:09:20;96647.31;;;16.13;44.83
44079;BME280;29744;49.078;12.878;2022-10-31T13:14:27;96646.19;;;16.14;44.81
44079;BME280;29744;49.078;12.878;2022-10-31T13:19:34;96645.06;;;16.15;44.95
44079;BME280;29744;49.078;12.878;2022-10-31T13:24:41;96633.91;;;16.17;44.41
44079;BME280;29744;49.078;12.878;2022-10-31T13:30:12;96633.91;;;16.17;44.52
44079;BME280;29744;49.078;12.878;2022-10-31T13:35:14;96625.81;;;16.17;44.79
44079;BME280;29744;49.078;12.878;2022-10-31T13:45:48;96623.44;;;16.15;44.81
44079;BME280;29744;49.078;12.878;2022-10-31T13:51:01;96626.13;;;16.15;44.69
44079;BME280;29744;49.078;12.878;2022-10-31T14:06:12;96607.19;;;16.15;44.44
44079;BME280;29744;49.078;12.878;2022-10-31T14:11:25;96606.88;;;16.17;44.65
44079;BME280;29744;49.078;12.878;2022-10-31T14:16:29;96597.63;;;16.18;44.59
44079;BME280;29744;49.078;12.878;2022-10-31T14:21:37;96602.25;;;16.17;44.74
44079;BME280;29744;49.078;12.878;2022-10-31T14:26:58;96592.53;;;16.16;44.50
44079;BME280;29744;49.078;12.878;2022-10-31T14:32:03;96585.22;;;16.17;44.87
44079;BME280;29744;49.078;12.878;2022-10-31T14:48:06;96584.28;;;16.13;45.17
44079;BME280;29744;49.078;12.878;2022-10-31T14:53:24;96581.59;;;16.13;44.91
44079;BME280;29744;49.078;12.878;2022-10-31T15:03:39;96572.03;;;16.15;44.88
44079;BME280;29744;49.078;12.878;2022-10-31T15:08:50;96566.28;;;16.17;44.94
44079;BME280;29744;49.078;12.878;2022-10-31T15:13:53;96567.41;;;16.16;44.92
44079;BME280;29744;49.078;12.878;2022-10-31T15:19:04;96565.81;;;16.15;44.74
44079;BME280;29744;49.078;12.878;2022-10-31T15:24:05;96557.69;;;16.15;44.96
44079;BME280;29744;49.078;12.878;2022-10-31T15:29:15;96556.13;;;16.14;44.49
44079;BME280;29744;49.078;12.878;2022-10-31T15:39:30;96558.03;;;16.13;44.76
44079;BME280;29744;49.078;12.878;2022-10-31T15:44:33;96551.50;;;16.14;45.08
44079;BME280;29744;49.078;12.878;2022-10-31T15:49:40;96549.13;;;16.13;44.79
44079;BME280;29744;49.078;12.878;2022-10-31T15:54:45;96554.59;;;16.04;45.13
44079;BME280;29744;49.078;12.878;2022-10-31T15:59:47;96562.19;;;16.10;44.96
44079;BME280;29744;49.078;12.878;2022-10-31T16:04:50;96555.66;;;16.12;44.90
44079;BME280;29744;49.078;12.878;2022-10-31T16:09:53;96550.91;;;16.08;44.78
44079;BME280;29744;49.078;12.878;2022-10-31T16:14:54;96551.69;;;16.09;44.60
44079;BME280;29744;49.078;12.878;2022-10-31T16:20:00;96546.28;;;16.09;44.77
44079;BME280;29744;49.078;12.878;2022-10-31T16:25:11;96548.53;;;16.07;45.13
44079;BME280;29744;49.078;12.878;2022-10-31T16:35:34;96541.09;;;16.04;44.84
44079;BME280;29744;49.078;12.878;2022-10-31T16:40:37;96550.44;;;16.06;45.12
44079;BME280;29744;49.078;12.878;2022-10-31T16:45:44;96548.41;;;16.03;45.20
44079;BME280;29744;49.078;12.878;2022-10-31T16:50:45;96540.28;;;16.03;44.77
44079;BME280;29744;49.078;12.878;2022-10-31T16:55:54;96548.41;;;16.03;45.13
44079;BME280;29744;49.078;12.878;2022-10-31T17:00:55;96552.69;;;16.04;45.28
44079;BME280;29744;49.078;12.878;2022-10-31T17:05:56;96541.41;;;16.02;44.86
44079;BME280;29744;49.078;12.878;2022-10-31T17:10:57;96545.69;;;16.03;45.06
44079;BME280;29744;49.078;12.878;2022-10-31T17:15:59;96546.50;;;16.04;45.16
44079;BME280;29744;49.078;12.878;2022-10-31T17:21:02;96544.56;;;16.04;45.86
44079;BME280;29744;49.078;12.878;2022-10-31T17:26:04;96553.63;;;16.08;46.45
44079;BME280;29744;49.078;12.878;2022-10-31T17:31:21;96554.06;;;16.10;46.55
44079;BME280;29744;49.078;12.878;2022-10-31T17:36:22;96550.84;;;16.17;46.47
44079;BME280;29744;49.078;12.878;2022-10-31T17:41:23;96551.44;;;16.23;46.72
44079;BME280;29744;49.078;12.878;2022-10-31T17:46:23;96549.63;;;16.27;46.51
44079;BME280;29744;49.078;12.878;2022-10-31T17:51:24;96544.69;;;16.29;47.06
44079;BME280;29744;49.078;12.878;2022-10-31T17:56:24;96541.31;;;16.32;46.64
44079;BME280;29744;49.078;12.878;2022-10-31T18:01:25;96536.03;;;16.35;46.28
44079;BME280;29744;49.078;12.878;2022-10-31T18:06:25;96535.69;;;16.37;46.44
44079;BME280;29744;49.078;12.878;2022-10-31T18:11:26;96537.28;;;16.38;46.37
44079;BME280;29744;49.078;12.878;2022-10-31T18:16:27;96526.63;;;16.41;46.14
44079;BME280;29744;49.078;12.878;2022-10-31T18:21:28;96525.94;;;16.45;45.86
44079;BME280;29744;49.078;12.878;2022-10-31T18:26:29;96529.44;;;16.45;46.07
44079;BME280;29744;49.078;12.878;2022-10-31T18:31:29;96537.22;;;16.47;45.85
44079;BME280;29744;49.078;12.878;2022-10-31T18:36:29;96545.34;;;16.47;45.89
44079;BME280;29744;49.078;12.878;2022-10-31T18:41:30;96542.31;;;16.48;45.84
44079;BME280;29744;49.078;12.878;2022-10-31T18:46:30;96534.19;;;16.48;45.85
44079;BME280;29744;49.078;12.878;2022-10-31T18:51:31;96536.09;;;16.48;45.72
44079;BME280;29744;49.078;12.878;2022-10-31T18:56:31;96534.19;;;16.48;46.05
44079;BME280;29744;49.078;12.878;2022-10-31T19:01:32;96534.19;;;16.48;45.64
44079;BME280;29744;49.078;12.878;2022-10-31T19:06:32;96530.69;;;16.48;45.56
44079;BME280;29744;49.078;12.878;2022-10-31T19:11:34;96526.53;;;16.50;45.43
44079;BME280;29744;49.078;12.878;2022-10-31T19:16:34;96515.69;;;16.50;45.56
44079;BME280;29744;49.078;12.878;2022-10-31T19:21:34;96513.78;;;16.51;45.70
44079;BME280;29744;49.078;12.878;2022-10-31T19:26:35;96516.81;;;16.49;45.74
44079;BME280;29744;49.078;12.878;2022-10-31T19:31:35;96513.31;;;16.49;45.30
44079;BME280;29744;49.078;12.878;2022-10-31T19:36:36;96516.81;;;16.49;45.41
44079;BME280;29744;49.078;12.878;2022-10-31T19:41:36;96512.19;;;16.50;45.51
44079;BME280;29744;49.078;12.878;2022-10-31T19:46:36;96517.63;;;16.50;45.44
44079;BME280;29744;49.078;12.878;2022-10-31T19:51:37;96520.66;;;16.48;45.22
44079;BME280;29744;49.078;12.878;2022-10-31T19:56:37;96510.50;;;16.45;45.18
44079;BME280;29744;49.078;12.878;2022-10-31T20:01:37;96515.91;;;16.45;45.13
44079;BME280;29744;49.078;12.878;2022-10-31T20:06:39;96513.66;;;16.47;45.24
44079;BME280;29744;49.078;12.878;2022-10-31T20:11:42;96506.66;;;16.46;45.57
44079;BME280;29744;49.078;12.878;2022-10-31T20:16:44;96509.38;;;16.46;45.00
44079;BME280;29744;49.078;12.878;2022-10-31T20:21:44;96507.78;;;16.45;45.13
44079;BME280;29744;49.078;12.878;2022-10-31T20:26:44;96505.88;;;16.46;45.21
44079;BME280;29744;49.078;12.878;2022-10-31T20:31:45;96510.50;;;16.45;45.47
44079;BME280;29744;49.078;12.878;2022-10-31T20:36:46;96508.13;;;16.44;45.44
44079;BME280;29744;49.078;12.878;2022-10-31T20:41:47;96505.75;;;16.42;45.19
44079;BME280;29744;49.078;12.878;2022-10-31T20:46:47;96505.75;;;16.42;45.53
44079;BME280;29744;49.078;12.878;2022-10-31T20:51:48;96504.16;;;16.41;45.00
44079;BME280;29744;49.078;12.878;2022-10-31T20:56:48;96500.97;;;16.39;44.93
44079;BME280;29744;49.078;12.878;2022-10-31T21:01:48;96509.88;;;16.39;45.62
44079;BME280;29744;49.078;12.878;2022-10-31T21:06:49;96496.69;;;16.38;45.16
44079;BME280;29744;49.078;12.878;2022-10-31T21:11:49;96501.63;;;16.36;45.59
44079;BME280;29744;49.078;12.878;2022-10-31T21:16:49;96506.25;;;16.35;45.15
44079;BME280;29744;49.078;12.878;2022-10-31T21:21:50;96501.97;;;16.34;45.24
44079;BME280;29744;49.078;12.878;2022-10-31T21:26:51;96500.72;;;16.32;45.39
44079;BME280;29744;49.078;12.878;2022-10-31T21:31:51;96501.06;;;16.30;45.27
44079;BME280;29744;49.078;12.878;2022-10-31T21:36:51;96498.69;;;16.29;45.32
44079;BME280;29744;49.078;12.878;2022-10-31T21:41:51;96504.56;;;16.31;45.28
44079;BME280;29744;49.078;12.878;2022-10-31T21:46:52;96508.84;;;16.32;45.34
44079;BME280;29744;49.078;12.878;2022-10-31T21:51:52;96496.78;;;16.29;45.43
44079;BME280;29744;49.078;12.878;2022-10-31T21:56:54;96493.28;;;16.29;45.36
44079;BME280;29744;49.078;12.878;2022-10-31T22:01:55;96500.59;;;16.28;45.14
44079;BME280;29744;49.078;12.878;2022-10-31T22:06:57;96486.16;;;16.24;45.74
44079;BME280;29744;49.078;12.878;2022-10-31T22:11:57;96481.06;;;16.23;45.32
44079;BME280;29744;49.078;12.878;2022-10-31T22:16:58;96479.50;;;16.22;45.42
44079;BME280;29744;49.078;12.878;2022-10-31T22:21:59;96471.72;;;16.20;45.37
44079;BME280;29744;49.078;12.878;2022-10-31T22:27:00;96481.75;;;16.20;45.45
44079;BME280;29744;49.078;12.878;2022-10-31T22:32:00;96466.63;;;16.19;45.15
44079;BME280;29744;49.078;12.878;2022-10-31T22:37:02;96476.66;;;16.18;45.29
44079;BME280;29744;49.078;12.878;2022-10-31T22:42:02;96474.28;;;16.17;45.63
44079;BME280;29744;49.078;12.878;2022-10-31T22:47:02;96474.63;;;16.15;45.77
44079;BME280;29744;49.078;12.878;2022-10-31T22:52:03;96457.59;;;16.15;45.23
44079;BME280;29744;49.078;12.878;2022-10-31T22:57:04;96461.44;;;16.14;45.42
44079;BME280;29744;49.078;12.878;2022-10-31T23:02:04;96468.41;;;16.15;45.67
44079;BME280;29744;49.078;12.878;2022-10-31T23:07:05;96467.97;;;16.13;45.39
44079;BME280;29744;49.078;12.878;2022-10-31T23:12:05;96471.47;;;16.13;45.34
44079;BME280;29744;49.078;12.878;2022-10-31T23:17:24;96465.25;;;16.13;45.22
44079;BME280;29744;49.078;12.878;2022-10-31T23:22:25;96472.59;;;16.12;45.35
44079;BME280;29744;49.078;12.878;2022-10-31T23:27:25;96471.78;;;16.12;45.44
44079;BME280;29744;49.078;12.878;2022-10-31T23:32:34;96472.25;;;16.14;45.83
44079;BME280;29744;49.078;12.878;2022-10-31T23:37:36;96477.19;;;16.12;45.45
44079;BME280;29744;49.078;12.878;2022-10-31T23:42:37;96483.41;;;16.12;45.55
44079;BME280;29744;49.078;12.878;2022-10-31T23:47:37;96476.06;;;16.13;45.14
44079;BME280;29744;49.078;12.878;2022-10-31T23:52:38;96481.50;;;16.13;45.66
44079;BME280;29744;49.078;12.878;2022-10-31T23:57:38;96477.00;;;16.17;45.10
